Hovedside
METAR-TAF:

METAR-TAF

Lufthavner :

Svolvær, Norge

Svolvær lufthavn. Helle

breddegrad: 68-15N, lengdegrad: 014-40E, høyde over havet: 0 m

Gjeldene værobservasjon

Denne rapporten ble laget for 1 time og 2 minutter siden, klokken 12:50 UTC
Vind 10 kt fra Nordøst, skiftende mellom Nord-nordøst og Øst
Temperatur -4°C
Luftfuktighet 49%
Trykk 1044 hPa
Sikt 10 km eller mer
ingen skyer under 1500 m og ingen bygeskyer

METAR: ENSH 251250Z 05010KT 020V080 CAVOK M04/M13 Q1044 RMK WIND 150FT 05014KT

Tid: 14:52 (13:52 UTC)

Varsel

Denne rapporten ble laget for 2 timer og 52 minutter siden, klokken 11:00 UTC
Varsel gyldig fra 25. klokken 12 UTC til 25. klokken 21 UTC
Vind 10 kt fra Øst-nordøst
Sikt 10 km eller mer
ingen skyer under 1500 m og ingen bygeskyer

TAF: ENSH 251100Z 2512/2521 06010KT CAVOK

Værobservasjoner og værvarsel for over 4000 flyplasser (METAR- og TAF-rapporter).

Tilgjengelige stasjoner er representert av de røde og gule prikkene på kartet.

Hold musepekeren over prikken for å se navnet på stasjonen.

Klikk så for å se værobservasjoner og -varsler.

For å forandre kartet kan du klikke på den grønne knappen med svart kryss for å zoome inn, på den grønne knappen med strek for å zoome ut, eller på de grønne pilene for å se tilstøtende kart.


METAR-TAF: